Time;durP1;ratioP1;P1;durP2;ratioP2;P2;SDS_P1;SDS_P2;PMS_P1;PMS_P2;Temp;Humidity;BMP_temperature;BMP_pressure;BME280_temperature;BME280_humidity;BME280_pressure;Samples;Min_cycle;Max_cycle;Signal;HPM_P1;HPM_P2
2023/01/13 00:01:11;;;;;;;5.53;2.80;;;;;;;5.41;100.00;101172.00;5007836;28;20533;-70
2023/01/13 00:03:37;;;;;;;5.68;2.35;;;;;;;5.42;100.00;101167.69;5015203;28;20033;-69
2023/01/13 00:06:04;;;;;;;5.63;2.00;;;;;;;5.44;100.00;101160.66;5012409;28;20025;-69
2023/01/13 00:08:29;;;;;;;8.05;2.53;;;;;;;5.44;100.00;101163.25;5014591;28;20033;-70
2023/01/13 00:10:55;;;;;;;4.40;2.22;;;;;;;5.43;100.00;101159.81;5014077;28;20035;-70
2023/01/13 00:13:25;;;;;;;4.22;2.03;;;;;;;5.42;100.00;101171.09;5013463;28;20126;-70
2023/01/13 00:16:02;;;;;;;6.35;3.67;;;;;;;5.33;100.00;101161.31;5015862;28;20077;-70
2023/01/13 00:18:27;;;;;;;13.15;5.97;;;;;;;5.16;100.00;101161.53;5009136;28;20057;-70
2023/01/13 00:21:20;;;;;;;7.40;3.50;;;;;;;5.11;100.00;101160.97;5014366;28;20053;-69
2023/01/13 00:23:46;;;;;;;6.38;3.33;;;;;;;5.19;100.00;101151.00;5011238;28;20037;-69
2023/01/13 00:26:21;;;;;;;5.25;2.63;;;;;;;5.24;100.00;101154.13;5013747;28;20095;-69
2023/01/13 00:28:47;;;;;;;7.43;2.47;;;;;;;5.32;100.00;101149.31;5011827;28;20385;-70
2023/01/13 00:31:15;;;;;;;4.97;2.25;;;;;;;5.32;100.00;101160.47;5015590;28;20034;-69
2023/01/13 00:33:41;;;;;;;6.65;2.35;;;;;;;5.36;100.00;101152.53;5011509;28;20037;-70
2023/01/13 00:36:09;;;;;;;5.32;2.47;;;;;;;5.38;100.00;101148.94;5012272;28;20033;-69
2023/01/13 00:38:36;;;;;;;8.35;2.50;;;;;;;5.43;100.00;101149.50;5012302;28;20211;-70
2023/01/13 00:41:07;;;;;;;5.43;2.97;;;;;;;5.41;100.00;101151.34;5017656;28;20088;-70
2023/01/13 00:43:34;;;;;;;11.45;5.10;;;;;;;5.28;100.00;101150.44;5011265;28;20602;-70
2023/01/13 00:46:01;;;;;;;10.52;6.68;;;;;;;5.07;100.00;101149.16;5014208;28;20473;-70
2023/01/13 00:48:27;;;;;;;12.60;6.75;;;;;;;4.92;100.00;101145.75;5010216;28;20037;-70
2023/01/13 00:50:56;;;;;;;10.10;6.50;;;;;;;4.79;100.00;101143.06;5012284;28;20026;-70
2023/01/13 00:53:22;;;;;;;13.85;8.40;;;;;;;4.79;100.00;101140.47;5008347;28;20045;-70
2023/01/13 00:55:47;;;;;;;11.45;8.43;;;;;;;4.79;100.00;101137.88;5013336;28;20038;-69
2023/01/13 00:58:14;;;;;;;11.23;7.15;;;;;;;4.78;100.00;101137.97;5023232;28;20068;-69
2023/01/13 01:00:40;;;;;;;12.25;7.40;;;;;;;4.77;100.00;101139.72;5008952;28;20053;-70
2023/01/13 01:03:11;;;;;;;12.45;7.47;;;;;;;4.84;100.00;101142.78;5016586;28;20037;-70
2023/01/13 01:05:38;;;;;;;12.23;7.50;;;;;;;4.85;100.00;101139.28;5011333;28;20073;-69
2023/01/13 01:08:03;;;;;;;13.00;8.40;;;;;;;4.84;100.00;101130.69;5014805;28;20029;-69
2023/01/13 01:10:29;;;;;;;12.27;7.68;;;;;;;4.81;100.00;101132.63;5009621;28;20108;-69
2023/01/13 01:12:54;;;;;;;10.82;7.35;;;;;;;4.78;100.00;101136.22;5015971;28;20040;-69
2023/01/13 01:15:20;;;;;;;10.45;6.43;;;;;;;4.78;100.00;101128.50;5011863;28;20048;-70
2023/01/13 01:17:45;;;;;;;10.85;6.93;;;;;;;4.79;100.00;101132.72;5016907;28;20014;-70
2023/01/13 01:20:11;;;;;;;9.35;6.28;;;;;;;4.82;100.00;101126.56;5011925;28;20038;-70
2023/01/13 01:22:36;;;;;;;10.25;4.82;;;;;;;4.82;100.00;101121.38;5010900;28;20027;-69
2023/01/13 01:25:02;;;;;;;10.48;6.45;;;;;;;4.81;100.00;101130.88;5010991;28;20049;-70
2023/01/13 01:27:27;;;;;;;9.88;5.93;;;;;;;4.80;100.00;101123.22;5009511;28;20030;-69
2023/01/13 01:29:52;;;;;;;9.55;5.55;;;;;;;4.86;100.00;101125.44;5010567;28;20080;-70
2023/01/13 01:32:18;;;;;;;9.18;5.30;;;;;;;4.89;100.00;101120.09;5015475;28;20029;-69
2023/01/13 01:34:43;;;;;;;7.70;4.57;;;;;;;4.94;100.00;101105.16;5009389;28;20095;-70
2023/01/13 01:37:09;;;;;;;8.98;3.92;;;;;;;5.00;100.00;101104.78;5011480;28;20374;-70
2023/01/13 01:39:34;;;;;;;6.47;2.20;;;;;;;5.09;100.00;101108.56;5014938;28;20436;-70
2023/01/13 01:44:59;;;;;;;6.60;2.78;;;;;;;5.18;100.00;101105.44;5012714;28;20397;-70
2023/01/13 01:47:28;;;;;;;5.65;2.80;;;;;;;5.21;100.00;101100.88;5012473;28;20386;-70
2023/01/13 01:49:55;;;;;;;10.40;3.40;;;;;;;5.22;100.00;101104.28;5011875;28;20033;-69
2023/01/13 01:52:33;;;;;;;14.02;2.92;;;;;;;5.21;100.00;101094.88;5007333;28;20148;-71
2023/01/13 01:55:08;;;;;;;8.00;3.03;;;;;;;5.21;100.00;101092.31;5016943;28;20068;-71
2023/01/13 01:58:05;;;;;;;5.60;2.35;;;;;;;5.19;100.00;101086.44;5010441;28;20045;-69
2023/01/13 02:00:31;;;;;;;7.15;2.40;;;;;;;5.18;100.00;101083.00;5004451;28;20378;-70
2023/01/13 02:02:58;;;;;;;6.93;2.90;;;;;;;5.18;100.00;101087.34;5014203;28;20045;-70
2023/01/13 02:05:23;;;;;;;6.53;2.45;;;;;;;5.17;100.00;101088.28;5008306;28;20030;-70
2023/01/13 02:07:52;;;;;;;6.45;3.30;;;;;;;5.17;100.00;101080.53;5013498;28;20529;-69
2023/01/13 02:10:21;;;;;;;8.00;3.78;;;;;;;5.14;100.00;101066.03;5012501;28;20038;-70
2023/01/13 02:12:48;;;;;;;7.60;3.40;;;;;;;5.14;100.00;101065.22;5011262;28;20037;-70
2023/01/13 02:15:22;;;;;;;7.13;3.50;;;;;;;5.14;100.00;101067.81;5016074;28;20078;-70
2023/01/13 02:18:30;;;;;;;9.50;4.07;;;;;;;5.13;100.00;101063.56;5011681;28;20038;-70
2023/01/13 02:21:04;;;;;;;6.65;2.42;;;;;;;5.14;100.00;101060.88;5007213;28;20018;-70
2023/01/13 02:27:18;;;;;;;7.13;3.10;;;;;;;5.09;100.00;101062.09;5009531;28;20069;-69
2023/01/13 02:33:36;;;;;;;9.98;4.97;;;;;;;4.82;100.00;101070.59;5005787;28;20397;-70
2023/01/13 02:36:19;;;;;;;9.07;4.90;;;;;;;4.74;100.00;101061.63;5008183;28;20034;-69
2023/01/13 02:39:08;;;;;;;8.23;5.22;;;;;;;4.76;100.00;101067.53;5007661;28;20030;-70
2023/01/13 02:44:31;;;;;;;11.05;5.63;;;;;;;4.80;100.00;101069.00;5006859;28;20049;-70
2023/01/13 02:47:04;;;;;;;8.93;4.65;;;;;;;4.84;100.00;101061.00;5007957;28;20108;-70
2023/01/13 02:49:38;;;;;;;9.85;3.33;;;;;;;4.96;100.00;101052.50;5008542;28;20034;-69
2023/01/13 02:52:15;;;;;;;5.60;3.63;;;;;;;5.07;100.00;101051.03;5014916;28;20112;-69
2023/01/13 02:54:47;;;;;;;7.90;2.97;;;;;;;5.16;100.00;101042.69;5010092;28;20061;-69
2023/01/13 02:57:17;;;;;;;6.18;2.47;;;;;;;5.19;100.00;101045.94;5009597;28;20120;-70
2023/01/13 02:59:43;;;;;;;7.18;2.92;;;;;;;5.24;100.00;101051.59;5007869;28;20108;-70
2023/01/13 03:02:13;;;;;;;5.47;2.50;;;;;;;5.23;100.00;101046.53;5008876;28;20461;-70
2023/01/13 03:04:48;;;;;;;7.30;2.65;;;;;;;5.24;100.00;101037.84;5008488;28;20030;-70
2023/01/13 03:07:19;;;;;;;6.15;2.38;;;;;;;5.25;100.00;101034.34;5008526;28;20124;-71
2023/01/13 03:10:06;;;;;;;7.47;2.42;;;;;;;5.25;100.00;101029.19;5002602;28;20101;-70
2023/01/13 03:12:43;;;;;;;5.70;2.58;;;;;;;5.22;100.00;101019.88;5011278;28;20038;-70
2023/01/13 03:15:20;;;;;;;9.57;4.35;;;;;;;5.14;100.00;101026.47;5009209;28;20425;-70
2023/01/13 03:18:08;;;;;;;7.47;3.08;;;;;;;5.09;100.00;101016.41;5006688;28;20029;-70
2023/01/13 03:20:40;;;;;;;5.78;3.22;;;;;;;5.15;100.00;101004.88;5008665;28;20025;-70
2023/01/13 03:23:14;;;;;;;5.45;2.08;;;;;;;5.23;100.00;101006.03;5008745;28;20160;-70
2023/01/13 03:25:55;;;;;;;7.15;3.13;;;;;;;5.26;100.00;101003.25;5008597;28;20034;-69
2023/01/13 03:28:27;;;;;;;4.60;2.88;;;;;;;5.28;100.00;101011.72;5013303;28;20037;-70
2023/01/13 03:30:59;;;;;;;4.53;2.63;;;;;;;5.25;100.00;101005.94;5006855;28;20402;-69
2023/01/13 03:33:31;;;;;;;5.63;2.80;;;;;;;5.24;100.00;101007.69;5009109;28;20486;-69
2023/01/13 03:36:03;;;;;;;5.82;2.00;;;;;;;5.29;100.00;101003.06;5012455;28;20030;-69
2023/01/13 03:38:34;;;;;;;4.82;2.05;;;;;;;5.31;100.00;101006.38;5012826;28;20456;-70
2023/01/13 03:41:17;;;;;;;5.28;2.33;;;;;;;5.36;100.00;101002.66;5008479;28;20029;-70
2023/01/13 03:46:46;;;;;;;5.43;1.95;;;;;;;5.43;100.00;101009.09;5012813;28;24175;-70
2023/01/13 03:49:18;;;;;;;6.88;2.63;;;;;;;5.44;100.00;101006.44;5014490;28;20433;-70
2023/01/13 03:51:48;;;;;;;7.13;2.40;;;;;;;5.42;100.00;101018.63;5014709;28;20687;-70
2023/01/13 03:54:17;;;;;;;7.63;3.42;;;;;;;5.39;100.00;101005.88;5016590;28;20030;-70
2023/01/13 03:57:12;;;;;;;8.48;2.78;;;;;;;5.40;100.00;101004.13;5011311;28;20041;-70
2023/01/13 03:59:44;;;;;;;6.05;2.28;;;;;;;5.41;100.00;101006.63;5011043;28;20034;-70
2023/01/13 04:02:24;;;;;;;9.02;2.20;;;;;;;5.40;100.00;100998.97;5008242;28;20041;-70
2023/01/13 04:04:59;;;;;;;4.95;2.83;;;;;;;5.35;100.00;101004.44;5013436;28;20029;-70
2023/01/13 04:07:37;;;;;;;6.20;2.58;;;;;;;5.34;100.00;101001.00;5014378;28;20053;-70
2023/01/13 04:10:07;;;;;;;7.25;2.55;;;;;;;5.32;100.00;100999.44;5011670;28;20040;-70
2023/01/13 04:12:59;;;;;;;5.50;2.10;;;;;;;5.30;100.00;100999.53;5012990;28;20500;-70
2023/01/13 04:15:53;;;;;;;7.40;2.60;;;;;;;5.30;100.00;100991.78;5010596;28;20033;-69
2023/01/13 04:18:24;;;;;;;6.32;2.58;;;;;;;5.30;100.00;100990.97;5011845;28;20457;-70
2023/01/13 04:20:51;;;;;;;6.35;2.40;;;;;;;5.34;100.00;100984.69;5011091;28;20095;-70
2023/01/13 04:23:19;;;;;;;5.18;1.63;;;;;;;5.35;100.00;100988.91;5011743;28;20052;-71
2023/01/13 04:25:45;;;;;;;4.72;1.67;;;;;;;5.38;100.00;100986.13;5029299;28;20493;-70
2023/01/13 04:28:12;;;;;;;3.25;1.60;;;;;;;5.37;100.00;100978.50;5013988;28;20033;-70
2023/01/13 04:30:38;;;;;;;9.15;2.08;;;;;;;5.35;100.00;100978.59;5012216;28;20064;-69
2023/01/13 04:33:04;;;;;;;5.30;2.03;;;;;;;5.34;100.00;100975.16;5013977;28;20040;-69
2023/01/13 04:35:31;;;;;;;8.20;1.98;;;;;;;5.34;100.00;100974.34;5011942;28;20042;-69
2023/01/13 04:38:05;;;;;;;6.03;2.25;;;;;;;5.33;100.00;100980.44;5020413;28;20114;-70
2023/01/13 04:40:31;;;;;;;7.93;2.72;;;;;;;5.30;100.00;100976.28;5010713;28;20065;-70
2023/01/13 04:42:58;;;;;;;6.45;2.75;;;;;;;5.28;100.00;100974.72;5012023;28;20030;-69
2023/01/13 04:45:25;;;;;;;8.65;2.45;;;;;;;5.25;100.00;100974.94;5013841;28;20342;-70
2023/01/13 04:47:51;;;;;;;5.07;2.17;;;;;;;5.20;100.00;100977.00;5018140;28;20382;-69
2023/01/13 04:50:21;;;;;;;7.25;2.33;;;;;;;5.15;100.00;100976.47;5012101;28;20087;-70
2023/01/13 04:53:00;;;;;;;7.50;2.42;;;;;;;5.11;100.00;100975.00;5008517;28;20045;-70
2023/01/13 04:55:28;;;;;;;6.97;2.65;;;;;;;5.07;100.00;100981.28;5011305;28;20038;-69
2023/01/13 04:57:53;;;;;;;6.22;2.20;;;;;;;5.06;100.00;100982.22;5013167;28;20038;-69
2023/01/13 05:00:21;;;;;;;6.50;2.78;;;;;;;5.07;100.00;100984.69;5010813;28;20374;-69
2023/01/13 05:02:49;;;;;;;3.70;1.83;;;;;;;5.06;100.00;100985.63;5013975;28;20069;-70
2023/01/13 05:05:16;;;;;;;6.15;2.13;;;;;;;5.06;100.00;100985.63;5010980;28;20046;-69
2023/01/13 05:07:42;;;;;;;6.43;2.17;;;;;;;5.06;100.00;100984.78;5009784;28;20034;-69
2023/01/13 05:10:09;;;;;;;7.32;3.22;;;;;;;5.02;100.00;100985.91;5009922;28;20034;-71
2023/01/13 05:18:02;;;;;;;7.50;2.63;;;;;;;5.00;100.00;100997.16;5011378;28;20119;-70
2023/01/13 05:20:28;;;;;;;5.03;2.00;;;;;;;4.98;100.00;100991.25;5017515;28;20061;-70
2023/01/13 05:25:42;;;;;;;4.72;1.52;;;;;;;5.02;100.00;100985.91;5013758;28;20107;-70
2023/01/13 05:28:09;;;;;;;4.32;1.65;;;;;;;5.08;100.00;100990.69;5009836;28;20033;-69
2023/01/13 05:30:42;;;;;;;9.27;1.90;;;;;;;5.07;100.00;100991.63;5016062;28;20033;-69
2023/01/13 05:33:10;;;;;;;4.18;1.60;;;;;;;5.04;100.00;101009.88;5019726;28;20034;-69
2023/01/13 05:35:38;;;;;;;4.85;1.70;;;;;;;5.05;100.00;101008.97;5006771;28;20460;-70
2023/01/13 05:38:03;;;;;;;8.05;2.55;;;;;;;5.00;100.00;101006.66;5015247;28;20166;-70
2023/01/13 05:43:19;;;;;;;7.03;2.33;;;;;;;4.91;100.00;101009.81;5011411;28;20084;-69
2023/01/13 05:45:57;;;;;;;8.63;2.95;;;;;;;4.86;100.00;101015.25;5010854;28;20029;-70
2023/01/13 05:48:32;;;;;;;6.32;2.53;;;;;;;4.80;100.00;101019.97;5015579;28;20060;-69
2023/01/13 05:50:58;;;;;;;6.75;2.47;;;;;;;4.79;100.00;101019.13;5054518;28;20499;-69
2023/01/13 05:53:24;;;;;;;8.85;2.22;;;;;;;4.78;100.00;101009.72;5053230;28;20052;-69
2023/01/13 05:55:50;;;;;;;6.50;2.55;;;;;;;4.75;100.00;101012.50;5048751;28;20383;-69
2023/01/13 05:58:18;;;;;;;6.18;2.35;;;;;;;4.69;100.00;101019.81;5050399;28;20531;-70
2023/01/13 06:00:45;;;;;;;4.88;2.17;;;;;;;4.73;100.00;101026.41;5047650;28;20056;-70
2023/01/13 06:03:11;;;;;;;6.95;2.13;;;;;;;4.80;100.00;101032.88;5048087;28;20033;-70
2023/01/13 06:05:38;;;;;;;6.43;2.17;;;;;;;4.84;100.00;101027.44;5052237;28;20444;-70
2023/01/13 06:08:05;;;;;;;5.60;1.70;;;;;;;4.88;100.00;101031.47;5033042;28;20037;-69
2023/01/13 06:10:31;;;;;;;5.72;1.67;;;;;;;4.93;100.00;101034.63;5051107;28;20484;-69
2023/01/13 06:12:56;;;;;;;4.05;2.17;;;;;;;4.94;100.00;101027.69;5047637;28;20032;-70
2023/01/13 06:15:23;;;;;;;5.47;1.83;;;;;;;4.97;100.00;101028.34;5049167;28;20024;-70
2023/01/13 06:17:48;;;;;;;4.45;2.08;;;;;;;4.96;100.00;101020.69;5050597;28;20036;-70
2023/01/13 06:20:15;;;;;;;5.82;1.98;;;;;;;4.98;100.00;101026.59;5050634;28;20037;-70
2023/01/13 06:22:45;;;;;;;6.50;2.65;;;;;;;5.01;100.00;101026.41;5048734;28;20068;-69
2023/01/13 06:25:23;;;;;;;6.45;2.60;;;;;;;5.03;100.00;101031.47;5049346;28;20060;-70
2023/01/13 06:27:50;;;;;;;7.03;2.60;;;;;;;5.03;100.00;101027.13;5052590;28;20031;-70
2023/01/13 06:30:16;;;;;;;7.55;2.28;;;;;;;5.03;100.00;101024.56;5048459;28;20039;-70
2023/01/13 06:32:47;;;;;;;6.45;2.13;;;;;;;5.07;100.00;101027.78;5048417;28;20389;-70
2023/01/13 06:35:18;;;;;;;4.93;1.50;;;;;;;5.08;100.00;101019.94;5047467;28;20056;-70
2023/01/13 06:37:49;;;;;;;8.60;1.88;;;;;;;5.08;100.00;101016.53;5051687;28;20090;-70
2023/01/13 06:40:16;;;;;;;3.80;1.30;;;;;;;5.05;100.00;101008.97;5052553;28;20384;-70
2023/01/13 06:45:29;;;;;;;8.32;1.83;;;;;;;5.05;100.00;101020.13;5053374;28;20150;-70
2023/01/13 06:47:58;;;;;;;8.75;3.15;;;;;;;5.05;100.00;101019.28;5051754;28;20090;-70
2023/01/13 06:50:24;;;;;;;8.35;3.28;;;;;;;4.99;100.00;101021.31;5050712;28;20057;-69
2023/01/13 06:52:49;;;;;;;10.27;3.80;;;;;;;4.87;100.00;101019.50;5048516;28;21432;-69
2023/01/13 06:55:15;;;;;;;8.95;4.00;;;;;;;4.72;100.00;101017.88;5056621;28;20366;-69
2023/01/13 06:57:55;;;;;;;12.15;5.88;;;;;;;4.65;100.00;101016.59;5048652;28;20076;-70
2023/01/13 07:00:23;;;;;;;13.60;5.25;;;;;;;4.64;100.00;101010.59;5043394;28;20350;-70
2023/01/13 07:02:50;;;;;;;10.57;5.30;;;;;;;4.63;100.00;101013.28;5047475;28;20055;-69
2023/01/13 07:05:16;;;;;;;11.95;5.68;;;;;;;4.65;100.00;101020.00;5049567;28;20079;-70
2023/01/13 07:07:42;;;;;;;14.27;5.78;;;;;;;4.68;100.00;101018.16;5046283;28;20526;-70
2023/01/13 07:10:11;;;;;;;11.07;4.38;;;;;;;4.70;100.00;101013.72;5043322;28;20064;-69
2023/01/13 07:15:17;;;;;;;10.85;4.50;;;;;;;4.75;100.00;101019.41;5046345;28;20120;-70
2023/01/13 07:15:24;;;;;;;9.07;4.07;;;;;;;4.80;100.00;101023.38;5046238;28;20085;-69
2023/01/13 07:17:49;;;;;;;6.95;2.67;;;;;;;4.86;100.00;101012.66;5049821;28;20032;-70
2023/01/13 07:20:15;;;;;;;6.30;2.65;;;;;;;4.96;100.00;101011.19;5044977;28;20381;-70
2023/01/13 07:22:41;;;;;;;7.75;2.60;;;;;;;5.06;100.00;101014.03;5046099;28;20087;-70
2023/01/13 07:25:07;;;;;;;7.22;2.30;;;;;;;5.11;100.00;101013.75;5046716;28;20032;-70
2023/01/13 07:27:32;;;;;;;4.18;2.15;;;;;;;5.13;100.00;101019.66;5055379;28;20029;-69
2023/01/13 07:29:58;;;;;;;6.60;3.15;;;;;;;5.17;100.00;101028.88;5047588;28;20035;-70
2023/01/13 07:32:23;;;;;;;6.78;2.67;;;;;;;5.19;100.00;101022.69;5046134;28;20047;-70
2023/01/13 07:34:49;;;;;;;6.20;2.88;;;;;;;5.26;100.00;101017.91;5048083;28;20021;-69
2023/01/13 07:37:15;;;;;;;5.60;2.35;;;;;;;5.31;100.00;101021.03;5046578;28;20135;-69
2023/01/13 07:39:40;;;;;;;8.23;2.35;;;;;;;5.34;100.00;101020.84;5049453;28;20041;-70
2023/01/13 07:44:51;;;;;;;5.85;2.63;;;;;;;5.38;100.00;101022.31;5043501;28;20044;-70
2023/01/13 07:47:18;;;;;;;7.38;3.45;;;;;;;5.39;100.00;101017.97;5047376;28;20037;-70
2023/01/13 07:49:44;;;;;;;7.82;3.05;;;;;;;5.38;100.00;101022.31;5045265;28;20067;-70
2023/01/13 07:52:09;;;;;;;11.35;4.88;;;;;;;5.35;100.00;101017.34;5048620;28;20033;-70
2023/01/13 07:54:38;;;;;;;12.18;5.25;;;;;;;5.29;100.00;101009.97;5047086;28;20400;-70
2023/01/13 07:57:04;;;;;;;15.45;6.00;;;;;;;5.25;100.00;101001.59;5051523;28;20064;-69
2023/01/13 07:59:29;;;;;;;14.32;7.07;;;;;;;5.19;100.00;100999.44;5050834;28;20082;-69
2023/01/13 08:01:55;;;;;;;18.90;6.85;;;;;;;5.17;100.00;101000.44;5046114;28;20021;-69
2023/01/13 08:04:20;;;;;;;13.23;7.75;;;;;;;5.17;100.00;101010.78;5050329;28;20036;-70
2023/01/13 08:06:46;;;;;;;15.18;7.82;;;;;;;5.19;100.00;101019.25;5051438;28;20025;-69
2023/01/13 08:09:11;;;;;;;13.52;8.35;;;;;;;5.25;100.00;101008.50;5054434;28;20039;-69
2023/01/13 08:11:37;;;;;;;18.35;8.57;;;;;;;5.32;100.00;101009.78;5050214;28;20059;-69
2023/01/13 08:14:02;;;;;;;16.80;8.55;;;;;;;5.37;100.00;101015.50;5049932;28;20028;-69
2023/01/13 08:16:27;;;;;;;12.82;7.88;;;;;;;5.42;100.00;101017.78;5042809;28;20041;-69
2023/01/13 08:18:53;;;;;;;13.25;7.32;;;;;;;5.41;100.00;101018.72;5047055;28;20091;-70
2023/01/13 08:21:18;;;;;;;15.65;6.63;;;;;;;5.41;100.00;101016.13;5048509;28;20377;-70
2023/01/13 08:23:44;;;;;;;11.20;5.65;;;;;;;5.46;100.00;101025.25;5047671;28;20028;-68
2023/01/13 08:26:13;;;;;;;11.07;4.97;;;;;;;5.53;100.00;101026.50;5047371;28;20044;-69
2023/01/13 08:28:41;;;;;;;15.27;4.90;;;;;;;5.59;100.00;101033.88;5047634;28;20438;-69
2023/01/13 08:31:10;;;;;;;10.98;4.80;;;;;;;5.62;100.00;101033.69;5047789;28;20029;-69
2023/01/13 08:33:36;;;;;;;6.82;3.50;;;;;;;5.65;100.00;101036.06;5051787;28;20024;-69
2023/01/13 08:36:08;;;;;;;4.47;2.85;;;;;;;5.72;100.00;101033.88;5050003;28;20040;-69
2023/01/13 08:38:35;;;;;;;10.43;3.72;;;;;;;5.78;100.00;101043.00;5050128;28;20128;-69
2023/01/13 08:41:11;;;;;;;8.55;3.72;;;;;;;5.85;100.00;101044.28;5054365;28;20506;-69
2023/01/13 08:43:37;;;;;;;15.20;3.13;;;;;;;5.88;100.00;101060.41;5055502;28;20040;-70
2023/01/13 08:46:05;;;;;;;12.88;3.97;;;;;;;5.84;100.00;101050.38;5052900;28;20438;-69
2023/01/13 08:48:31;;;;;;;16.10;4.65;;;;;;;5.86;100.00;101061.44;5051354;28;20045;-70
2023/01/13 08:51:02;;;;;;;10.93;5.20;;;;;;;5.88;100.00;101052.66;5051243;28;20093;-70
2023/01/13 08:53:27;;;;;;;15.82;7.20;;;;;;;5.85;100.00;101067.53;5049303;28;20037;-69
2023/01/13 08:55:53;;;;;;;16.45;6.45;;;;;;;5.84;100.00;101060.72;5049753;28;20069;-70
2023/01/13 08:58:18;;;;;;;19.08;6.65;;;;;;;5.77;100.00;101055.13;5049918;28;20377;-70
2023/01/13 09:00:44;;;;;;;16.02;8.07;;;;;;;5.78;100.00;101059.34;5052684;28;20160;-69
2023/01/13 09:03:09;;;;;;;16.05;6.68;;;;;;;5.78;100.00;101051.59;5048108;28;20036;-70
2023/01/13 09:05:35;;;;;;;19.45;6.22;;;;;;;5.83;100.00;101048.72;5047542;28;20035;-69
2023/01/13 09:08:01;;;;;;;12.45;6.40;;;;;;;5.86;100.00;101048.50;5053716;28;20041;-70
2023/01/13 09:10:27;;;;;;;15.18;6.22;;;;;;;5.94;100.00;101056.63;5041157;28;20126;-69
2023/01/13 09:15:40;;;;;;;14.70;6.38;;;;;;;6.09;100.00;101058.22;5047819;28;20380;-70
2023/01/13 09:18:07;;;;;;;17.50;6.72;;;;;;;6.16;100.00;101053.44;5048089;28;20033;-70
2023/01/13 09:20:33;;;;;;;12.10;6.60;;;;;;;6.25;100.00;101051.09;5043908;28;20052;-69
2023/01/13 09:22:58;;;;;;;18.40;8.52;;;;;;;6.33;99.94;101043.63;5050006;28;20401;-69
2023/01/13 09:25:24;;;;;;;13.10;6.03;;;;;;;6.41;100.00;101044.88;5046731;28;20025;-69
2023/01/13 09:27:50;;;;;;;11.45;6.68;;;;;;;6.44;100.00;101048.09;5051184;28;20056;-69
2023/01/13 09:30:16;;;;;;;12.10;6.65;;;;;;;6.43;100.00;101045.59;5045836;28;20433;-69
2023/01/13 09:32:41;;;;;;;11.43;6.60;;;;;;;6.42;100.00;101041.38;5047226;28;20068;-69
2023/01/13 09:35:07;;;;;;;9.82;6.22;;;;;;;6.46;100.00;101038.47;5047315;28;20435;-70
2023/01/13 09:37:36;;;;;;;9.93;6.00;;;;;;;6.52;100.00;101037.22;5050507;28;20108;-69
2023/01/13 09:40:04;;;;;;;13.40;6.00;;;;;;;6.62;100.00;101038.22;5046981;28;20122;-70
2023/01/13 09:45:30;;;;;;;14.52;5.05;;;;;;;6.67;98.44;101033.56;5054403;28;20040;-70
2023/01/13 09:47:59;;;;;;;16.42;6.25;;;;;;;6.72;98.64;101038.44;5049807;28;20024;-70
2023/01/13 09:50:43;;;;;;;15.13;8.30;;;;;;;6.79;96.51;101035.31;5047033;28;20047;-70
2023/01/13 09:53:17;;;;;;;11.63;6.72;;;;;;;6.86;97.86;101036.53;5053099;28;20376;-69
2023/01/13 09:55:44;;;;;;;17.60;10.20;;;;;;;7.00;96.95;101025.22;5048320;28;20384;-70
2023/01/13 09:58:15;;;;;;;18.05;10.15;;;;;;;7.13;94.44;101019.97;5064537;28;20021;-69
2023/01/13 10:00:54;;;;;;;17.85;9.45;;;;;;;7.18;94.54;101017.91;5051301;28;20506;-70
2023/01/13 10:03:26;;;;;;;19.50;8.20;;;;;;;7.21;96.00;101015.09;5046435;28;20029;-70
2023/01/13 10:06:29;;;;;;;14.27;5.28;;;;;;;7.23;92.12;101002.84;5037149;28;20457;-70
2023/01/13 10:08:56;;;;;;;13.23;4.72;;;;;;;7.28;95.00;101006.75;5040932;28;20045;-69
2023/01/13 10:14:30;;;;;;;5.72;3.15;;;;;;;7.38;92.53;101001.75;5041154;28;20333;-69
2023/01/13 10:17:10;;;;;;;7.20;3.50;;;;;;;7.47;93.50;100995.06;5044729;28;20112;-68
2023/01/13 10:19:47;;;;;;;8.02;3.85;;;;;;;7.57;94.50;100991.69;5050850;28;20036;-69
2023/01/13 10:22:28;;;;;;;9.38;3.22;;;;;;;7.66;93.63;100980.63;5052297;28;20486;-69
2023/01/13 10:25:02;;;;;;;8.35;3.13;;;;;;;7.76;93.51;100979.94;5054195;28;20043;-70
2023/01/13 10:27:31;;;;;;;6.80;2.88;;;;;;;7.89;93.39;100980.69;5048838;28;20110;-70
2023/01/13 10:29:56;;;;;;;7.97;4.47;;;;;;;7.95;92.37;100980.25;5049588;28;20037;-69
2023/01/13 10:32:22;;;;;;;10.63;4.22;;;;;;;8.06;92.27;100977.66;5051495;28;20559;-69
2023/01/13 10:34:50;;;;;;;8.38;3.42;;;;;;;8.15;91.94;100976.94;5054264;28;20120;-70
2023/01/13 10:37:25;;;;;;;14.60;4.25;;;;;;;8.30;91.51;100973.19;5045685;28;20037;-69
2023/01/13 10:39:54;;;;;;;10.60;4.57;;;;;;;8.37;91.18;100965.78;5049271;28;20396;-70
2023/01/13 10:42:22;;;;;;;10.00;5.43;;;;;;;8.38;91.19;100964.84;5047352;28;20418;-70
2023/01/13 10:44:52;;;;;;;10.43;5.57;;;;;;;8.36;91.32;100963.31;5049112;28;20036;-69
2023/01/13 10:47:35;;;;;;;8.98;4.57;;;;;;;8.31;89.73;100963.63;5049350;28;20032;-69
2023/01/13 10:50:18;;;;;;;9.63;4.97;;;;;;;8.40;91.35;100957.78;5050155;28;20033;-69
2023/01/13 10:53:02;;;;;;;7.75;4.20;;;;;;;8.46;91.46;100951.28;5051744;28;20032;-69
2023/01/13 10:55:35;;;;;;;7.15;3.95;;;;;;;8.53;92.96;100955.84;5046077;28;20041;-70
2023/01/13 10:58:18;;;;;;;14.25;5.18;;;;;;;8.56;90.48;100954.78;5048926;28;20063;-68
2023/01/13 11:00:44;;;;;;;10.93;6.07;;;;;;;8.55;92.85;100955.72;5047515;28;20028;-68
2023/01/13 11:03:18;;;;;;;19.52;7.32;;;;;;;8.48;92.78;100952.00;5048260;28;20021;-69
2023/01/13 11:05:51;;;;;;;12.70;5.53;;;;;;;8.41;91.31;100950.81;5047706;28;20503;-69
2023/01/13 11:08:19;;;;;;;8.05;3.80;;;;;;;8.37;92.10;100941.59;5043441;28;20041;-69
2023/01/13 11:10:48;;;;;;;10.80;3.75;;;;;;;8.38;90.15;100945.84;5044548;28;20025;-69
2023/01/13 11:13:16;;;;;;;7.55;3.42;;;;;;;8.45;89.75;100931.44;5048022;28;20041;-68
2023/01/13 11:15:49;;;;;;;6.97;3.33;;;;;;;8.44;89.57;100929.81;5048298;28;20032;-68
2023/01/13 11:18:34;;;;;;;7.75;3.10;;;;;;;8.44;87.73;100933.22;5045785;28;20480;-69
2023/01/13 11:21:05;;;;;;;8.88;3.55;;;;;;;8.43;89.37;100928.97;5049440;28;20036;-69
2023/01/13 11:23:38;;;;;;;10.13;3.40;;;;;;;8.48;88.66;100932.03;5050223;28;20036;-69
2023/01/13 11:26:28;;;;;;;9.23;3.28;;;;;;;8.51;86.28;100923.97;5045047;28;20057;-70
2023/01/13 11:29:04;;;;;;;7.05;3.30;;;;;;;8.55;89.35;100928.00;5049797;28;20032;-68
2023/01/13 11:31:41;;;;;;;9.02;3.53;;;;;;;8.57;89.28;100927.88;5047730;28;20033;-68
2023/01/13 11:34:21;;;;;;;12.60;5.32;;;;;;;8.59;90.13;100931.19;5046266;28;20032;-68
2023/01/13 11:36:51;;;;;;;10.10;5.28;;;;;;;8.59;90.97;100924.22;5050493;28;20103;-70
2023/01/13 11:39:35;;;;;;;7.25;3.90;;;;;;;8.62;91.09;100910.16;5047186;28;20033;-66
2023/01/13 11:42:19;;;;;;;8.85;4.32;;;;;;;8.67;90.46;100915.81;5043254;28;20445;-70
2023/01/13 11:45:28;;;;;;;12.57;3.78;;;;;;;8.78;88.14;100909.78;5060975;28;20179;-69
2023/01/13 11:47:57;;;;;;;10.95;4.07;;;;;;;8.86;89.64;100904.81;5028974;28;20052;-69
2023/01/13 11:50:58;;;;;;;7.65;3.90;;;;;;;8.93;89.00;100904.19;5043807;28;20374;-68
2023/01/13 11:53:29;;;;;;;9.30;4.03;;;;;;;8.99;90.39;100902.84;5048710;28;20041;-69
2023/01/13 11:56:11;;;;;;;11.32;3.78;;;;;;;8.97;90.32;100895.19;5048253;28;20415;-69
2023/01/13 11:58:55;;;;;;;11.45;4.25;;;;;;;9.02;90.18;100893.97;5043906;28;20052;-68
2023/01/13 12:01:26;;;;;;;9.52;5.10;;;;;;;9.03;90.42;100899.06;5046023;28;20514;-69
2023/01/13 12:04:19;;;;;;;10.80;4.60;;;;;;;8.86;89.92;100900.44;5047904;28;20048;-68
2023/01/13 12:06:48;;;;;;;12.45;5.03;;;;;;;8.76;93.06;100899.50;5045167;28;20108;-69
2023/01/13 12:09:25;;;;;;;12.40;4.43;;;;;;;8.73;91.44;100893.72;5049233;28;20389;-69
2023/01/13 12:12:46;;;;;;;12.52;4.70;;;;;;;8.67;90.58;100892.44;5066294;28;20445;-69
2023/01/13 12:15:11;;;;;;;11.23;5.05;;;;;;;8.65;93.96;100887.38;5005873;28;20037;-69
2023/01/13 12:17:56;;;;;;;9.77;5.45;;;;;;;8.67;93.36;100889.03;5005875;28;20103;-70
2023/01/13 12:20:40;;;;;;;11.88;5.40;;;;;;;8.64;94.51;100887.50;5007461;28;20227;-70
2023/01/13 12:23:19;;;;;;;14.40;6.35;;;;;;;8.64;94.59;100879.69;4991212;28;20371;-69